61NY weather

Bassett Field
Lockport, New York, United States

Public forecast

Using degrees Fahrenheit for public forecast. Weather courtesy of forecast.io.

Closest aviation weather report (METAR) to Bassett Field

Closest report is Niagara Falls International Airport, 8.1 nm (14.9 km) WSW. Retrieved 2019/10/21 01:53 UTC (8 minutes ago):

KIAG 210153Z 07003KT 10SM CLR 10/08 A2997 RMK AO2 SLP154 T01000078

Closest aviation forecast (TAF) to Bassett Field

Closest forecast is Niagara Falls International Airport, 8.1 nm (14.9 km) WSW. Retrieved 2019-10-21 00:22 UTC (2 hours ago):

TAF KIAG 202320Z 2100/2124 VRB03KT P6SM FEW250 FM211300 09005KT P6SM SCT250 FM212100 10010KT P6SM BKN200